• Join FlightAware (Why Join?)
  • Login
  • US Flag 
11:56AM EDT


 

Airport Tracker/Info


-or-


 

Live Flight TrackerFlight Track Log ✈ LXJ342 ✈ 29-Aug-2013 ✈ KMVY - CYYZ

Flight Track Log - Related Links

Times and Time Zones

All times are in EDT time to prevent confusion due to time zone crossing. See the LXJ342 flight status page for this flight to view local times or setup timezone preferences in your user account.

Time Position Orientation Groundspeed Altitude Reporting Facility
EDT Latitude Longitude Course Direction KTS MPH feet Rate Location/Type
05:19PM 41.4858 -70.5142 287° West 268 308 5,100  Level Boston Center
05:20PM 41.5453 -70.4653 32° Northeast 263 303 8,400 3,660 Climbing Boston Center
05:21PM 41.6089 -70.4078 34° Northeast 263 303 12,400 3,900 Climbing Boston Center
05:22PM 41.6767 -70.3472 34° Northeast 274 315 16,200 3,180 Climbing Boston Center
05:23PM 41.9676 -70.0726 31° Northeast  Level FlightAware Approximate
05:23PM 41.7556 -70.3278 10° North 281 323 18,900  Level Boston Center
05:24PM 42.0343 -70.1125 287° West  Level FlightAware Approximate
05:24PM 41.8175 -70.4178 313° West 259 298 21,000  Level Boston Center
05:25PM 41.8406 -70.5481 283° West 290 334 23,200 2,280 Climbing Boston Center
05:26PM 41.8636 -70.6783 283° West 335 386 25,700 2,220 Climbing Boston Center
05:27PM 41.8886 -70.8114 284° West 346 398 27,700 1,920 Climbing Boston Center
05:28PM 41.9156 -70.9531 284° West 370 426 29,600 1,680 Climbing Boston Center
05:29PM 41.9403 -71.0947 283° West 388 447 31,100 1,320 Climbing Boston Center
05:30PM 41.9603 -71.2144 283° West 398 458 32,300 1,260 Climbing Boston Center
05:31PM 41.9847 -71.3703 282° West 398 458 33,600 840 Climbing Boston Center
05:32PM 42.0092 -71.5208 282° West 403 464 34,000 840 Climbing Boston Center
05:33PM 42.0331 -71.6853 281° West 409 471 35,300 1,260 Climbing Boston Center
05:34PM 42.0569 -71.8333 282° West 409 471 36,600 900 Climbing Boston Center
05:35PM 42.0806 -71.9814 282° West 409 471 37,200 600 Climbing Boston Center
05:36PM 42.1039 -72.1294 282° West 409 471 37,900 600 Climbing Boston Center
05:37PM 42.1253 -72.2664 282° West 409 471 38,400 540 Climbing Boston Center
05:38PM 42.1503 -72.4233 282° West 414 476 39,000 540 Climbing Boston Center
05:39PM 42.1731 -72.5775 281° West 414 476 39,500 480 Climbing Boston Center
05:40PM 42.1958 -72.7342 281° West 424 488 40,000 240 Climbing Boston Center
05:41PM 42.2181 -72.8942 281° West 429 494 40,000  Level Boston Center
05:42PM 42.2425 -73.0514 282° West 429 494 40,000  Level Boston Center
05:43PM 42.2664 -73.2089 282° West 429 494 40,000  Level Boston Center
05:44PM 42.2947 -73.3550 285° West 423 487 40,000  Level Boston Center
05:45PM 42.3161 -73.5014 281° West 411 473 40,000  Level Boston Center
05:46PM 42.3356 -73.6647 279° West 411 473 40,000  Level Boston Center
05:47PM 42.3442 -73.8222 274° West 425 489 40,000  Level Boston Center
05:48PM 42.3442 -73.9794 270° West 425 489 40,000  Level Boston Center
05:49PM 42.3419 -74.1394 269° West 420 483 40,000  Level Boston Center
05:50PM 42.3436 -74.2997 271° West 420 483 40,000  Level Boston Center
05:51PM 42.3447 -74.4683 271° West 420 483 40,000  Level Boston Center
05:52PM 42.3458 -74.6311 271° West 425 489 40,000  Level Boston Center
05:53PM 42.3489 -74.7886 272° West 425 489 40,000  Level Boston Center
05:54PM 42.3686 -74.9467 280° West 425 489 40,000  Level Boston Center
05:55PM 42.3964 -75.0997 284° West 425 489 40,000  Level Boston Center
05:56PM 42.4239 -75.2500 284° West 425 489 40,000  Level Boston Center
05:57PM 42.4492 -75.4117 282° West 425 489 40,000  Level Boston Center
05:58PM 42.4739 -75.5706 282° West 430 495 40,000  Level Boston Center
05:59PM 42.4989 -75.7239 283° West 430 495 40,000 -360 Level Boston Center
06:00PM 42.5256 -75.8803 283° West 430 495 39,300 -1,380 Descending Boston Center
06:01PM 42.5497 -76.0367 282° West 430 495 37,200 -2,040 Descending Boston Center
06:03PM 42.6103 -76.4214 282° West 434 499 32,500 -1,560 Descending Cleveland Center
06:04PM 42.6350 -76.5864 282° West 434 499 32,000 -300 Descending Cleveland Center
06:05PM 42.6594 -76.7572 281° West 448 516 32,000  Level Cleveland Center
06:06PM 42.6858 -76.9281 282° West 462 532 32,000  Level Cleveland Center
06:07PM 42.7122 -77.1044 282° West 468 539 32,000  Level Cleveland Center
06:08PM 42.7378 -77.2728 282° West 468 539 32,000  Level Cleveland Center
06:09PM 42.7636 -77.4467 281° West 468 539 32,000  Level Cleveland Center
06:10PM 42.7886 -77.6039 282° West 468 539 32,000  Level Cleveland Center
06:11PM 42.8139 -77.7839 281° West 473 544 32,000 -420 Level Cleveland Center
06:12PM 42.8347 -77.9586 279° West 473 544 31,200 -1,380 Descending Cleveland Center
06:13PM 42.8594 -78.1361 281° West 478 550 29,300 -1,920 Descending Cleveland Center
06:14PM 42.8839 -78.3078 281° West 478 550 27,400 -1,980 Descending Cleveland Center
06:15PM 42.9078 -78.4714 281° West 465 535 25,400 -2,040 Descending Cleveland Center
06:16PM 42.9292 -78.6267 281° West 446 513 23,400 -2,040 Descending Cleveland Center
06:17PM 42.9878 -78.7553 302° West 409 471 21,400 -2,100 Descending Cleveland Center
06:18PM 43.0667 -78.8833 310° West 390 449 18,700 -1,920 Descending Toronto Center
06:19PM 43.1333 -79.0167 304° West 370 426 17,100 -1,500 Descending Toronto Center
06:20PM 43.1833 -79.1333 300° West 370 426 15,700 -1,440 Descending Toronto Center
06:21PM 43.2333 -79.2167 309° West 320 368 14,300 -1,440 Descending Toronto Center
06:22PM 43.2833 -79.3167 305° West 300 345 12,900 -1,200 Descending Toronto Center
06:23PM 43.3500 -79.3833 324° Northwest 290 334 11,900 -1,200 Descending Toronto Center
06:24PM 43.4167 -79.4333 331° Northwest 290 334 10,500 -1,500 Descending Toronto Center
06:25PM 43.4833 -79.4667 340° North 290 334 9,000 -1,260 Descending Toronto Center
06:26PM 43.5667 -79.5167 337° Northwest 280 322 8,000 -1,080 Descending Toronto Center
06:27PM 43.6333 -79.5333 350° North 280 322 6,900 -1,020 Descending Toronto Center
06:28PM 43.7000 -79.5667 340° North 250 288 6,000 -840 Descending Toronto Center
06:29PM 43.7667 -79.5833 350° North 240 276 5,300 -960 Descending Toronto Center
06:30PM 43.8167 -79.5667 14° North 230 265 4,100 -1,020 Descending Toronto Center
06:31PM 43.8333 -79.5000 71° East 230 265 3,300 -600 Descending Toronto Center
06:32PM 43.7667 -79.5000 180° South 220 253 3,000 -660 Descending Toronto Center
06:33PM 43.7333 -79.5333 216° Southwest 200 230 2,000 -960 Descending Toronto Center
06:34PM 43.7000 -79.5833 227° Southwest 160 184 1,100 -720 Descending Toronto Center
06:35PM 43.6833 -79.6333 245° Southwest 130 150 600 -540 Descending Toronto Center